sensor_id;sensor_type;location;lat;lon;timestamp;P1;durP1;ratioP1;P2;durP2;ratioP2
10761;SDS011;5433;50.862;4.320;2024-03-08T00:02:13;18.00;;;11.60;;
10761;SDS011;5433;50.862;4.320;2024-03-08T00:04:39;18.35;;;12.05;;
10761;SDS011;5433;50.862;4.320;2024-03-08T00:07:05;18.50;;;12.05;;
10761;SDS011;5433;50.862;4.320;2024-03-08T00:09:32;15.30;;;9.55;;
10761;SDS011;5433;50.862;4.320;2024-03-08T00:11:58;20.52;;;12.52;;
10761;SDS011;5433;50.862;4.320;2024-03-08T00:14:24;21.50;;;12.38;;
10761;SDS011;5433;50.862;4.320;2024-03-08T00:16:50;18.73;;;11.60;;
10761;SDS011;5433;50.862;4.320;2024-03-08T00:19:17;20.08;;;11.43;;
10761;SDS011;5433;50.862;4.320;2024-03-08T00:21:43;18.00;;;11.38;;
10761;SDS011;5433;50.862;4.320;2024-03-08T00:24:10;18.27;;;11.50;;
10761;SDS011;5433;50.862;4.320;2024-03-08T00:26:37;17.98;;;11.00;;
10761;SDS011;5433;50.862;4.320;2024-03-08T00:29:03;18.52;;;11.73;;
10761;SDS011;5433;50.862;4.320;2024-03-08T00:31:29;20.55;;;11.88;;
10761;SDS011;5433;50.862;4.320;2024-03-08T00:33:56;17.63;;;11.55;;
10761;SDS011;5433;50.862;4.320;2024-03-08T00:36:22;17.17;;;10.82;;
10761;SDS011;5433;50.862;4.320;2024-03-08T00:38:48;19.23;;;11.45;;
10761;SDS011;5433;50.862;4.320;2024-03-08T00:41:14;19.50;;;11.63;;
10761;SDS011;5433;50.862;4.320;2024-03-08T00:43:40;17.73;;;11.88;;
10761;SDS011;5433;50.862;4.320;2024-03-08T00:46:06;17.17;;;12.23;;
10761;SDS011;5433;50.862;4.320;2024-03-08T00:48:32;19.60;;;12.15;;
10761;SDS011;5433;50.862;4.320;2024-03-08T00:50:58;20.98;;;11.80;;
10761;SDS011;5433;50.862;4.320;2024-03-08T00:53:24;17.17;;;11.07;;
10761;SDS011;5433;50.862;4.320;2024-03-08T00:55:50;18.08;;;11.65;;
10761;SDS011;5433;50.862;4.320;2024-03-08T00:58:16;19.00;;;11.63;;
10761;SDS011;5433;50.862;4.320;2024-03-08T01:00:42;19.35;;;12.85;;
10761;SDS011;5433;50.862;4.320;2024-03-08T01:03:09;18.92;;;11.70;;
10761;SDS011;5433;50.862;4.320;2024-03-08T01:05:35;20.48;;;12.38;;
10761;SDS011;5433;50.862;4.320;2024-03-08T01:08:01;18.50;;;12.00;;
10761;SDS011;5433;50.862;4.320;2024-03-08T01:10:28;20.55;;;12.10;;
10761;SDS011;5433;50.862;4.320;2024-03-08T01:12:54;19.75;;;11.77;;
10761;SDS011;5433;50.862;4.320;2024-03-08T01:15:21;18.23;;;11.82;;
10761;SDS011;5433;50.862;4.320;2024-03-08T01:17:47;16.75;;;11.40;;
10761;SDS011;5433;50.862;4.320;2024-03-08T01:20:13;17.67;;;12.13;;
10761;SDS011;5433;50.862;4.320;2024-03-08T01:22:40;19.33;;;12.60;;
10761;SDS011;5433;50.862;4.320;2024-03-08T01:25:06;20.98;;;12.82;;
10761;SDS011;5433;50.862;4.320;2024-03-08T01:27:33;19.35;;;12.48;;
10761;SDS011;5433;50.862;4.320;2024-03-08T01:30:00;19.25;;;11.95;;
10761;SDS011;5433;50.862;4.320;2024-03-08T01:32:26;20.35;;;12.25;;
10761;SDS011;5433;50.862;4.320;2024-03-08T01:34:52;19.75;;;12.48;;
10761;SDS011;5433;50.862;4.320;2024-03-08T01:37:18;18.58;;;12.38;;
10761;SDS011;5433;50.862;4.320;2024-03-08T01:39:44;20.02;;;11.90;;
10761;SDS011;5433;50.862;4.320;2024-03-08T01:42:11;19.40;;;12.35;;
10761;SDS011;5433;50.862;4.320;2024-03-08T01:44:40;20.30;;;13.40;;
10761;SDS011;5433;50.862;4.320;2024-03-08T01:47:06;19.73;;;12.32;;
10761;SDS011;5433;50.862;4.320;2024-03-08T01:49:32;21.05;;;12.32;;
10761;SDS011;5433;50.862;4.320;2024-03-08T01:51:58;20.27;;;12.45;;
10761;SDS011;5433;50.862;4.320;2024-03-08T01:54:24;19.27;;;12.60;;
10761;SDS011;5433;50.862;4.320;2024-03-08T01:56:52;21.70;;;13.18;;
10761;SDS011;5433;50.862;4.320;2024-03-08T01:59:18;20.92;;;12.80;;
10761;SDS011;5433;50.862;4.320;2024-03-08T02:01:44;21.25;;;12.88;;
10761;SDS011;5433;50.862;4.320;2024-03-08T02:04:10;21.08;;;13.73;;
10761;SDS011;5433;50.862;4.320;2024-03-08T02:06:36;21.52;;;13.63;;
10761;SDS011;5433;50.862;4.320;2024-03-08T02:09:03;20.48;;;13.20;;
10761;SDS011;5433;50.862;4.320;2024-03-08T02:11:35;21.83;;;13.93;;
10761;SDS011;5433;50.862;4.320;2024-03-08T02:14:01;19.35;;;12.65;;
10761;SDS011;5433;50.862;4.320;2024-03-08T02:16:27;20.95;;;13.48;;
10761;SDS011;5433;50.862;4.320;2024-03-08T02:18:53;19.77;;;12.70;;
10761;SDS011;5433;50.862;4.320;2024-03-08T02:21:19;19.27;;;13.40;;
10761;SDS011;5433;50.862;4.320;2024-03-08T02:23:46;21.30;;;13.02;;
10761;SDS011;5433;50.862;4.320;2024-03-08T02:26:12;22.83;;;14.45;;
10761;SDS011;5433;50.862;4.320;2024-03-08T02:28:38;21.50;;;13.68;;
10761;SDS011;5433;50.862;4.320;2024-03-08T02:31:04;21.45;;;13.77;;
10761;SDS011;5433;50.862;4.320;2024-03-08T02:33:33;20.67;;;13.57;;
10761;SDS011;5433;50.862;4.320;2024-03-08T02:35:59;21.77;;;13.82;;
10761;SDS011;5433;50.862;4.320;2024-03-08T02:38:25;22.48;;;15.23;;
10761;SDS011;5433;50.862;4.320;2024-03-08T02:40:52;19.30;;;12.85;;
10761;SDS011;5433;50.862;4.320;2024-03-08T02:43:18;21.92;;;14.43;;
10761;SDS011;5433;50.862;4.320;2024-03-08T02:45:45;23.02;;;13.90;;
10761;SDS011;5433;50.862;4.320;2024-03-08T02:48:11;24.20;;;14.90;;
10761;SDS011;5433;50.862;4.320;2024-03-08T02:50:37;20.58;;;14.60;;
10761;SDS011;5433;50.862;4.320;2024-03-08T02:53:07;21.50;;;14.43;;
10761;SDS011;5433;50.862;4.320;2024-03-08T02:55:34;21.63;;;13.77;;
10761;SDS011;5433;50.862;4.320;2024-03-08T02:58:01;19.90;;;14.80;;
10761;SDS011;5433;50.862;4.320;2024-03-08T03:00:28;20.88;;;14.45;;
10761;SDS011;5433;50.862;4.320;2024-03-08T03:02:55;22.23;;;14.43;;
10761;SDS011;5433;50.862;4.320;2024-03-08T03:05:22;21.60;;;14.80;;
10761;SDS011;5433;50.862;4.320;2024-03-08T03:07:48;22.33;;;15.15;;
10761;SDS011;5433;50.862;4.320;2024-03-08T03:10:16;22.73;;;14.35;;
10761;SDS011;5433;50.862;4.320;2024-03-08T03:12:42;23.83;;;15.00;;
10761;SDS011;5433;50.862;4.320;2024-03-08T03:15:08;19.85;;;13.55;;
10761;SDS011;5433;50.862;4.320;2024-03-08T03:17:34;23.20;;;14.88;;
10761;SDS011;5433;50.862;4.320;2024-03-08T03:20:00;21.80;;;15.55;;
10761;SDS011;5433;50.862;4.320;2024-03-08T03:22:34;23.63;;;16.27;;
10761;SDS011;5433;50.862;4.320;2024-03-08T03:25:00;20.20;;;15.02;;
10761;SDS011;5433;50.862;4.320;2024-03-08T03:27:27;22.30;;;14.63;;
10761;SDS011;5433;50.862;4.320;2024-03-08T03:29:55;23.17;;;15.70;;
10761;SDS011;5433;50.862;4.320;2024-03-08T03:32:22;22.60;;;15.48;;
10761;SDS011;5433;50.862;4.320;2024-03-08T03:34:48;21.85;;;14.55;;
10761;SDS011;5433;50.862;4.320;2024-03-08T03:37:18;19.45;;;12.60;;
10761;SDS011;5433;50.862;4.320;2024-03-08T03:39:44;21.52;;;15.30;;
10761;SDS011;5433;50.862;4.320;2024-03-08T03:42:17;22.20;;;15.23;;
10761;SDS011;5433;50.862;4.320;2024-03-08T03:44:46;22.23;;;15.52;;
10761;SDS011;5433;50.862;4.320;2024-03-08T03:47:13;22.20;;;14.88;;
10761;SDS011;5433;50.862;4.320;2024-03-08T03:49:40;20.98;;;15.38;;
10761;SDS011;5433;50.862;4.320;2024-03-08T03:52:06;23.08;;;15.80;;
10761;SDS011;5433;50.862;4.320;2024-03-08T03:54:32;20.60;;;14.50;;
10761;SDS011;5433;50.862;4.320;2024-03-08T03:56:58;23.63;;;16.67;;
10761;SDS011;5433;50.862;4.320;2024-03-08T03:59:25;18.58;;;12.70;;
10761;SDS011;5433;50.862;4.320;2024-03-08T04:01:52;26.67;;;17.23;;
10761;SDS011;5433;50.862;4.320;2024-03-08T04:04:19;22.52;;;15.93;;
10761;SDS011;5433;50.862;4.320;2024-03-08T04:06:45;21.30;;;14.35;;
10761;SDS011;5433;50.862;4.320;2024-03-08T04:09:11;24.80;;;15.93;;
10761;SDS011;5433;50.862;4.320;2024-03-08T04:11:37;24.02;;;15.73;;
10761;SDS011;5433;50.862;4.320;2024-03-08T04:14:03;23.50;;;14.90;;
10761;SDS011;5433;50.862;4.320;2024-03-08T04:16:30;24.10;;;16.60;;
10761;SDS011;5433;50.862;4.320;2024-03-08T04:18:56;24.30;;;16.05;;
10761;SDS011;5433;50.862;4.320;2024-03-08T04:21:22;22.35;;;15.43;;
10761;SDS011;5433;50.862;4.320;2024-03-08T04:23:48;24.15;;;15.75;;
10761;SDS011;5433;50.862;4.320;2024-03-08T04:26:14;23.58;;;16.02;;
10761;SDS011;5433;50.862;4.320;2024-03-08T04:28:40;25.75;;;16.67;;
10761;SDS011;5433;50.862;4.320;2024-03-08T04:31:06;26.83;;;15.98;;
10761;SDS011;5433;50.862;4.320;2024-03-08T04:33:32;24.50;;;16.48;;
10761;SDS011;5433;50.862;4.320;2024-03-08T04:36:00;23.55;;;15.82;;
10761;SDS011;5433;50.862;4.320;2024-03-08T04:38:29;23.30;;;16.30;;
10761;SDS011;5433;50.862;4.320;2024-03-08T04:40:55;24.67;;;16.40;;
10761;SDS011;5433;50.862;4.320;2024-03-08T04:43:22;24.30;;;17.30;;
10761;SDS011;5433;50.862;4.320;2024-03-08T04:45:50;21.55;;;15.57;;
10761;SDS011;5433;50.862;4.320;2024-03-08T04:48:16;21.73;;;15.88;;
10761;SDS011;5433;50.862;4.320;2024-03-08T04:50:42;23.98;;;16.58;;
10761;SDS011;5433;50.862;4.320;2024-03-08T04:53:09;23.25;;;15.88;;
10761;SDS011;5433;50.862;4.320;2024-03-08T04:55:35;24.20;;;15.98;;
10761;SDS011;5433;50.862;4.320;2024-03-08T04:58:02;23.60;;;16.60;;
10761;SDS011;5433;50.862;4.320;2024-03-08T05:00:30;22.98;;;15.95;;
10761;SDS011;5433;50.862;4.320;2024-03-08T05:02:56;22.85;;;15.55;;
10761;SDS011;5433;50.862;4.320;2024-03-08T05:05:23;25.25;;;17.17;;
10761;SDS011;5433;50.862;4.320;2024-03-08T05:07:50;25.48;;;16.83;;
10761;SDS011;5433;50.862;4.320;2024-03-08T05:10:16;26.27;;;16.92;;
10761;SDS011;5433;50.862;4.320;2024-03-08T05:12:42;21.42;;;15.18;;
10761;SDS011;5433;50.862;4.320;2024-03-08T05:15:08;24.70;;;16.73;;
10761;SDS011;5433;50.862;4.320;2024-03-08T05:17:34;26.30;;;17.08;;
10761;SDS011;5433;50.862;4.320;2024-03-08T05:20:00;27.40;;;16.83;;
10761;SDS011;5433;50.862;4.320;2024-03-08T05:22:26;22.13;;;15.68;;
10761;SDS011;5433;50.862;4.320;2024-03-08T05:24:52;25.95;;;17.52;;
10761;SDS011;5433;50.862;4.320;2024-03-08T05:27:18;23.80;;;16.77;;
10761;SDS011;5433;50.862;4.320;2024-03-08T05:29:44;24.52;;;16.17;;
10761;SDS011;5433;50.862;4.320;2024-03-08T05:32:11;23.40;;;16.67;;
10761;SDS011;5433;50.862;4.320;2024-03-08T05:34:37;26.15;;;16.83;;
10761;SDS011;5433;50.862;4.320;2024-03-08T05:37:03;23.83;;;17.13;;
10761;SDS011;5433;50.862;4.320;2024-03-08T05:39:29;26.05;;;16.67;;
10761;SDS011;5433;50.862;4.320;2024-03-08T05:41:55;26.67;;;16.65;;
10761;SDS011;5433;50.862;4.320;2024-03-08T05:44:21;23.58;;;15.23;;
10761;SDS011;5433;50.862;4.320;2024-03-08T05:46:47;24.67;;;16.38;;
10761;SDS011;5433;50.862;4.320;2024-03-08T05:49:13;23.35;;;16.08;;
10761;SDS011;5433;50.862;4.320;2024-03-08T05:51:40;25.85;;;16.05;;
10761;SDS011;5433;50.862;4.320;2024-03-08T05:54:07;23.70;;;16.20;;
10761;SDS011;5433;50.862;4.320;2024-03-08T05:56:37;24.67;;;16.42;;
10761;SDS011;5433;50.862;4.320;2024-03-08T05:59:03;23.65;;;15.88;;
10761;SDS011;5433;50.862;4.320;2024-03-08T06:01:29;23.63;;;16.50;;
10761;SDS011;5433;50.862;4.320;2024-03-08T06:03:56;22.23;;;15.27;;
10761;SDS011;5433;50.862;4.320;2024-03-08T06:06:22;26.90;;;16.05;;
10761;SDS011;5433;50.862;4.320;2024-03-08T06:08:49;24.00;;;15.25;;
10761;SDS011;5433;50.862;4.320;2024-03-08T06:11:15;22.95;;;16.13;;
10761;SDS011;5433;50.862;4.320;2024-03-08T06:13:45;23.38;;;15.40;;
10761;SDS011;5433;50.862;4.320;2024-03-08T06:16:14;27.58;;;16.13;;
10761;SDS011;5433;50.862;4.320;2024-03-08T06:18:40;24.63;;;16.48;;
10761;SDS011;5433;50.862;4.320;2024-03-08T06:21:06;25.33;;;16.23;;
10761;SDS011;5433;50.862;4.320;2024-03-08T06:23:34;24.65;;;16.65;;
10761;SDS011;5433;50.862;4.320;2024-03-08T06:26:03;23.48;;;15.50;;
10761;SDS011;5433;50.862;4.320;2024-03-08T06:28:29;24.98;;;15.32;;
10761;SDS011;5433;50.862;4.320;2024-03-08T06:30:57;24.88;;;15.15;;
10761;SDS011;5433;50.862;4.320;2024-03-08T06:33:23;22.73;;;14.65;;
10761;SDS011;5433;50.862;4.320;2024-03-08T06:35:51;24.15;;;14.50;;
10761;SDS011;5433;50.862;4.320;2024-03-08T06:38:17;25.42;;;15.73;;
10761;SDS011;5433;50.862;4.320;2024-03-08T06:40:44;23.85;;;15.75;;
10761;SDS011;5433;50.862;4.320;2024-03-08T06:43:13;25.05;;;16.45;;
10761;SDS011;5433;50.862;4.320;2024-03-08T06:45:41;25.02;;;16.25;;
10761;SDS011;5433;50.862;4.320;2024-03-08T06:48:07;26.95;;;15.93;;
10761;SDS011;5433;50.862;4.320;2024-03-08T06:50:34;24.30;;;16.63;;
10761;SDS011;5433;50.862;4.320;2024-03-08T06:53:01;25.83;;;16.25;;
10761;SDS011;5433;50.862;4.320;2024-03-08T06:55:28;26.80;;;15.70;;
10761;SDS011;5433;50.862;4.320;2024-03-08T06:57:54;25.95;;;16.67;;
10761;SDS011;5433;50.862;4.320;2024-03-08T07:00:22;26.55;;;16.40;;
10761;SDS011;5433;50.862;4.320;2024-03-08T07:02:51;25.42;;;16.50;;
10761;SDS011;5433;50.862;4.320;2024-03-08T07:05:18;26.30;;;16.73;;
10761;SDS011;5433;50.862;4.320;2024-03-08T07:07:45;25.98;;;16.50;;
10761;SDS011;5433;50.862;4.320;2024-03-08T07:10:13;27.02;;;17.10;;
10761;SDS011;5433;50.862;4.320;2024-03-08T07:12:44;24.50;;;16.95;;
10761;SDS011;5433;50.862;4.320;2024-03-08T07:15:12;25.30;;;16.95;;
10761;SDS011;5433;50.862;4.320;2024-03-08T07:17:39;23.75;;;16.48;;
10761;SDS011;5433;50.862;4.320;2024-03-08T07:20:05;22.55;;;15.52;;
10761;SDS011;5433;50.862;4.320;2024-03-08T07:22:38;25.40;;;16.50;;
10761;SDS011;5433;50.862;4.320;2024-03-08T07:25:05;24.08;;;14.48;;
10761;SDS011;5433;50.862;4.320;2024-03-08T07:27:43;26.73;;;16.00;;
10761;SDS011;5433;50.862;4.320;2024-03-08T07:30:11;25.08;;;16.90;;
10761;SDS011;5433;50.862;4.320;2024-03-08T07:32:37;21.95;;;14.20;;
10761;SDS011;5433;50.862;4.320;2024-03-08T07:35:03;22.25;;;15.02;;
10761;SDS011;5433;50.862;4.320;2024-03-08T07:37:29;26.08;;;16.48;;
10761;SDS011;5433;50.862;4.320;2024-03-08T07:39:56;21.55;;;12.38;;
10761;SDS011;5433;50.862;4.320;2024-03-08T07:42:23;22.55;;;14.75;;
10761;SDS011;5433;50.862;4.320;2024-03-08T07:44:49;23.63;;;15.70;;
10761;SDS011;5433;50.862;4.320;2024-03-08T07:47:15;17.50;;;10.93;;
10761;SDS011;5433;50.862;4.320;2024-03-08T07:49:43;26.27;;;15.27;;
10761;SDS011;5433;50.862;4.320;2024-03-08T07:52:09;23.65;;;14.57;;
10761;SDS011;5433;50.862;4.320;2024-03-08T07:54:40;20.77;;;14.05;;
10761;SDS011;5433;50.862;4.320;2024-03-08T07:57:06;24.77;;;15.23;;
10761;SDS011;5433;50.862;4.320;2024-03-08T07:59:32;24.33;;;13.77;;
10761;SDS011;5433;50.862;4.320;2024-03-08T08:01:58;23.10;;;14.50;;
10761;SDS011;5433;50.862;4.320;2024-03-08T08:04:24;22.60;;;14.52;;
10761;SDS011;5433;50.862;4.320;2024-03-08T08:06:51;21.90;;;13.70;;
10761;SDS011;5433;50.862;4.320;2024-03-08T08:09:19;22.63;;;14.68;;
10761;SDS011;5433;50.862;4.320;2024-03-08T08:11:54;19.60;;;13.27;;
10761;SDS011;5433;50.862;4.320;2024-03-08T08:14:20;23.08;;;15.00;;
10761;SDS011;5433;50.862;4.320;2024-03-08T08:16:46;21.38;;;14.30;;
10761;SDS011;5433;50.862;4.320;2024-03-08T08:19:14;21.83;;;14.82;;
10761;SDS011;5433;50.862;4.320;2024-03-08T08:21:40;23.50;;;15.93;;
10761;SDS011;5433;50.862;4.320;2024-03-08T08:24:06;24.20;;;15.52;;
10761;SDS011;5433;50.862;4.320;2024-03-08T08:26:32;20.08;;;13.43;;
10761;SDS011;5433;50.862;4.320;2024-03-08T08:28:59;22.70;;;14.60;;
10761;SDS011;5433;50.862;4.320;2024-03-08T08:31:25;22.10;;;14.38;;
10761;SDS011;5433;50.862;4.320;2024-03-08T08:33:51;21.95;;;13.15;;
10761;SDS011;5433;50.862;4.320;2024-03-08T08:36:23;22.73;;;14.73;;
10761;SDS011;5433;50.862;4.320;2024-03-08T08:38:49;23.50;;;15.23;;
10761;SDS011;5433;50.862;4.320;2024-03-08T08:41:15;20.67;;;14.40;;
10761;SDS011;5433;50.862;4.320;2024-03-08T08:43:42;21.90;;;13.35;;
10761;SDS011;5433;50.862;4.320;2024-03-08T08:46:09;24.58;;;13.13;;
10761;SDS011;5433;50.862;4.320;2024-03-08T08:48:39;23.20;;;14.52;;
10761;SDS011;5433;50.862;4.320;2024-03-08T08:51:10;20.92;;;14.30;;
10761;SDS011;5433;50.862;4.320;2024-03-08T08:53:37;20.83;;;14.82;;
10761;SDS011;5433;50.862;4.320;2024-03-08T08:56:05;20.73;;;14.35;;
10761;SDS011;5433;50.862;4.320;2024-03-08T08:58:33;23.20;;;14.48;;
10761;SDS011;5433;50.862;4.320;2024-03-08T09:00:59;20.25;;;13.73;;
10761;SDS011;5433;50.862;4.320;2024-03-08T09:03:25;18.75;;;11.20;;
10761;SDS011;5433;50.862;4.320;2024-03-08T09:05:53;22.50;;;14.85;;
10761;SDS011;5433;50.862;4.320;2024-03-08T09:08:19;22.20;;;13.77;;
10761;SDS011;5433;50.862;4.320;2024-03-08T09:10:45;20.88;;;13.35;;
10761;SDS011;5433;50.862;4.320;2024-03-08T09:13:13;20.10;;;13.07;;
10761;SDS011;5433;50.862;4.320;2024-03-08T09:15:39;21.70;;;13.43;;
10761;SDS011;5433;50.862;4.320;2024-03-08T09:18:06;19.63;;;13.77;;
10761;SDS011;5433;50.862;4.320;2024-03-08T09:20:34;19.85;;;13.88;;
10761;SDS011;5433;50.862;4.320;2024-03-08T09:23:00;20.13;;;13.38;;
10761;SDS011;5433;50.862;4.320;2024-03-08T09:25:26;19.63;;;13.32;;
10761;SDS011;5433;50.862;4.320;2024-03-08T09:27:53;19.50;;;12.65;;
10761;SDS011;5433;50.862;4.320;2024-03-08T09:30:19;21.00;;;13.98;;
10761;SDS011;5433;50.862;4.320;2024-03-08T09:32:46;20.00;;;14.00;;
10761;SDS011;5433;50.862;4.320;2024-03-08T09:35:12;18.77;;;13.18;;
10761;SDS011;5433;50.862;4.320;2024-03-08T09:37:38;19.85;;;12.77;;
10761;SDS011;5433;50.862;4.320;2024-03-08T09:40:04;19.30;;;13.20;;
10761;SDS011;5433;50.862;4.320;2024-03-08T09:42:34;19.67;;;12.85;;
10761;SDS011;5433;50.862;4.320;2024-03-08T09:45:04;19.88;;;13.45;;
10761;SDS011;5433;50.862;4.320;2024-03-08T09:47:35;19.25;;;13.25;;
10761;SDS011;5433;50.862;4.320;2024-03-08T09:50:04;18.63;;;13.35;;
10761;SDS011;5433;50.862;4.320;2024-03-08T09:52:30;17.15;;;12.90;;
10761;SDS011;5433;50.862;4.320;2024-03-08T09:54:57;19.73;;;13.30;;
10761;SDS011;5433;50.862;4.320;2024-03-08T09:57:25;17.42;;;11.73;;
10761;SDS011;5433;50.862;4.320;2024-03-08T09:59:51;13.80;;;10.05;;
10761;SDS011;5433;50.862;4.320;2024-03-08T10:02:18;16.30;;;12.15;;
10761;SDS011;5433;50.862;4.320;2024-03-08T10:04:44;18.42;;;13.10;;
10761;SDS011;5433;50.862;4.320;2024-03-08T10:07:12;17.70;;;13.48;;
10761;SDS011;5433;50.862;4.320;2024-03-08T10:09:38;18.33;;;12.98;;
10761;SDS011;5433;50.862;4.320;2024-03-08T10:12:04;19.38;;;12.90;;
10761;SDS011;5433;50.862;4.320;2024-03-08T10:14:30;18.25;;;12.55;;
10761;SDS011;5433;50.862;4.320;2024-03-08T10:16:57;19.02;;;12.57;;
10761;SDS011;5433;50.862;4.320;2024-03-08T10:19:26;18.65;;;12.88;;
10761;SDS011;5433;50.862;4.320;2024-03-08T10:21:55;19.00;;;12.50;;
10761;SDS011;5433;50.862;4.320;2024-03-08T10:24:23;18.33;;;12.57;;
10761;SDS011;5433;50.862;4.320;2024-03-08T10:26:53;17.55;;;12.77;;
10761;SDS011;5433;50.862;4.320;2024-03-08T10:29:21;17.35;;;12.00;;
10761;SDS011;5433;50.862;4.320;2024-03-08T10:31:47;16.75;;;12.70;;
10761;SDS011;5433;50.862;4.320;2024-03-08T10:34:16;18.02;;;12.85;;
10761;SDS011;5433;50.862;4.320;2024-03-08T10:36:42;16.73;;;12.27;;
10761;SDS011;5433;50.862;4.320;2024-03-08T10:39:21;16.75;;;12.23;;
10761;SDS011;5433;50.862;4.320;2024-03-08T10:41:53;16.38;;;12.10;;
10761;SDS011;5433;50.862;4.320;2024-03-08T10:47:01;16.77;;;12.55;;
10761;SDS011;5433;50.862;4.320;2024-03-08T10:52:08;16.17;;;11.57;;
10761;SDS011;5433;50.862;4.320;2024-03-08T10:54:36;18.63;;;12.35;;
10761;SDS011;5433;50.862;4.320;2024-03-08T10:57:05;15.65;;;12.10;;
10761;SDS011;5433;50.862;4.320;2024-03-08T10:59:33;17.95;;;12.63;;
10761;SDS011;5433;50.862;4.320;2024-03-08T11:02:00;15.15;;;10.05;;
10761;SDS011;5433;50.862;4.320;2024-03-08T11:04:26;16.52;;;10.95;;
10761;SDS011;5433;50.862;4.320;2024-03-08T11:06:54;15.75;;;11.98;;
10761;SDS011;5433;50.862;4.320;2024-03-08T11:09:36;15.73;;;11.70;;
10761;SDS011;5433;50.862;4.320;2024-03-08T11:12:19;15.90;;;11.73;;
10761;SDS011;5433;50.862;4.320;2024-03-08T11:14:46;18.27;;;12.18;;
10761;SDS011;5433;50.862;4.320;2024-03-08T11:17:14;17.60;;;12.98;;
10761;SDS011;5433;50.862;4.320;2024-03-08T11:19:45;16.25;;;12.15;;
10761;SDS011;5433;50.862;4.320;2024-03-08T11:22:19;17.08;;;12.48;;
10761;SDS011;5433;50.862;4.320;2024-03-08T11:24:48;17.38;;;11.55;;
10761;SDS011;5433;50.862;4.320;2024-03-08T11:27:14;17.20;;;11.98;;
10761;SDS011;5433;50.862;4.320;2024-03-08T11:29:40;15.95;;;12.18;;
10761;SDS011;5433;50.862;4.320;2024-03-08T11:32:16;14.77;;;10.25;;
10761;SDS011;5433;50.862;4.320;2024-03-08T11:34:45;16.25;;;12.25;;
10761;SDS011;5433;50.862;4.320;2024-03-08T11:37:13;15.13;;;12.13;;
10761;SDS011;5433;50.862;4.320;2024-03-08T11:39:40;16.13;;;11.48;;
10761;SDS011;5433;50.862;4.320;2024-03-08T11:42:06;16.05;;;12.88;;
10761;SDS011;5433;50.862;4.320;2024-03-08T11:44:32;15.20;;;11.25;;
10761;SDS011;5433;50.862;4.320;2024-03-08T11:46:58;17.77;;;12.75;;
10761;SDS011;5433;50.862;4.320;2024-03-08T11:49:24;15.32;;;12.38;;
10761;SDS011;5433;50.862;4.320;2024-03-08T11:51:51;14.65;;;12.20;;
10761;SDS011;5433;50.862;4.320;2024-03-08T11:54:17;16.75;;;12.43;;
10761;SDS011;5433;50.862;4.320;2024-03-08T11:56:44;17.42;;;12.70;;
10761;SDS011;5433;50.862;4.320;2024-03-08T11:59:12;16.20;;;12.43;;
10761;SDS011;5433;50.862;4.320;2024-03-08T12:01:39;17.05;;;12.43;;
10761;SDS011;5433;50.862;4.320;2024-03-08T12:04:05;16.42;;;11.68;;
10761;SDS011;5433;50.862;4.320;2024-03-08T12:09:26;16.98;;;12.15;;
10761;SDS011;5433;50.862;4.320;2024-03-08T12:11:52;16.15;;;12.43;;
10761;SDS011;5433;50.862;4.320;2024-03-08T12:14:18;15.80;;;11.93;;
10761;SDS011;5433;50.862;4.320;2024-03-08T12:16:45;14.93;;;11.65;;
10761;SDS011;5433;50.862;4.320;2024-03-08T12:19:13;14.52;;;11.77;;
10761;SDS011;5433;50.862;4.320;2024-03-08T12:21:41;17.52;;;12.60;;
10761;SDS011;5433;50.862;4.320;2024-03-08T12:24:13;16.75;;;11.82;;
10761;SDS011;5433;50.862;4.320;2024-03-08T12:26:41;17.02;;;13.10;;
10761;SDS011;5433;50.862;4.320;2024-03-08T12:31:47;16.40;;;12.00;;
10761;SDS011;5433;50.862;4.320;2024-03-08T12:34:13;18.55;;;12.60;;
10761;SDS011;5433;50.862;4.320;2024-03-08T12:36:48;13.75;;;11.40;;
10761;SDS011;5433;50.862;4.320;2024-03-08T12:39:26;15.98;;;11.40;;
10761;SDS011;5433;50.862;4.320;2024-03-08T12:41:55;16.52;;;12.10;;
10761;SDS011;5433;50.862;4.320;2024-03-08T12:44:27;15.20;;;10.90;;
10761;SDS011;5433;50.862;4.320;2024-03-08T12:46:53;15.52;;;11.13;;
10761;SDS011;5433;50.862;4.320;2024-03-08T12:49:20;17.00;;;11.32;;
10761;SDS011;5433;50.862;4.320;2024-03-08T12:51:50;14.27;;;10.88;;
10761;SDS011;5433;50.862;4.320;2024-03-08T12:54:17;17.25;;;11.50;;
10761;SDS011;5433;50.862;4.320;2024-03-08T12:56:43;16.25;;;11.20;;
10761;SDS011;5433;50.862;4.320;2024-03-08T12:59:09;14.07;;;11.13;;
10761;SDS011;5433;50.862;4.320;2024-03-08T13:01:35;15.27;;;11.25;;
10761;SDS011;5433;50.862;4.320;2024-03-08T13:04:04;15.52;;;11.60;;
10761;SDS011;5433;50.862;4.320;2024-03-08T13:06:31;14.50;;;10.57;;
10761;SDS011;5433;50.862;4.320;2024-03-08T13:08:57;14.32;;;11.02;;
10761;SDS011;5433;50.862;4.320;2024-03-08T13:11:24;17.65;;;11.60;;
10761;SDS011;5433;50.862;4.320;2024-03-08T13:13:53;15.95;;;11.13;;
10761;SDS011;5433;50.862;4.320;2024-03-08T13:16:19;22.00;;;11.98;;
10761;SDS011;5433;50.862;4.320;2024-03-08T13:18:45;14.50;;;11.30;;
10761;SDS011;5433;50.862;4.320;2024-03-08T13:21:15;14.02;;;10.77;;
10761;SDS011;5433;50.862;4.320;2024-03-08T13:23:44;15.88;;;11.48;;
10761;SDS011;5433;50.862;4.320;2024-03-08T13:26:11;17.08;;;11.07;;
10761;SDS011;5433;50.862;4.320;2024-03-08T13:28:40;15.35;;;11.23;;
10761;SDS011;5433;50.862;4.320;2024-03-08T13:31:09;16.83;;;10.60;;
10761;SDS011;5433;50.862;4.320;2024-03-08T13:33:38;16.63;;;11.00;;
10761;SDS011;5433;50.862;4.320;2024-03-08T13:36:05;16.08;;;11.32;;
10761;SDS011;5433;50.862;4.320;2024-03-08T13:38:32;14.82;;;11.20;;
10761;SDS011;5433;50.862;4.320;2024-03-08T13:40:58;13.38;;;10.00;;
10761;SDS011;5433;50.862;4.320;2024-03-08T13:43:24;14.60;;;11.15;;
10761;SDS011;5433;50.862;4.320;2024-03-08T13:45:53;13.73;;;10.20;;
10761;SDS011;5433;50.862;4.320;2024-03-08T13:48:19;18.55;;;11.02;;
10761;SDS011;5433;50.862;4.320;2024-03-08T13:50:49;14.00;;;11.18;;
10761;SDS011;5433;50.862;4.320;2024-03-08T13:53:16;14.68;;;10.73;;
10761;SDS011;5433;50.862;4.320;2024-03-08T13:55:43;15.20;;;10.85;;
10761;SDS011;5433;50.862;4.320;2024-03-08T13:58:09;15.32;;;11.30;;
10761;SDS011;5433;50.862;4.320;2024-03-08T14:00:38;14.65;;;10.57;;
10761;SDS011;5433;50.862;4.320;2024-03-08T14:03:06;12.77;;;10.30;;
10761;SDS011;5433;50.862;4.320;2024-03-08T14:05:32;13.93;;;10.70;;
10761;SDS011;5433;50.862;4.320;2024-03-08T14:08:00;13.27;;;10.57;;
10761;SDS011;5433;50.862;4.320;2024-03-08T14:10:28;13.15;;;10.48;;
10761;SDS011;5433;50.862;4.320;2024-03-08T14:12:56;14.27;;;10.13;;
10761;SDS011;5433;50.862;4.320;2024-03-08T14:15:22;14.57;;;11.05;;
10761;SDS011;5433;50.862;4.320;2024-03-08T14:17:54;15.55;;;10.38;;
10761;SDS011;5433;50.862;4.320;2024-03-08T14:20:20;13.27;;;10.50;;
10761;SDS011;5433;50.862;4.320;2024-03-08T14:22:53;12.50;;;9.57;;
10761;SDS011;5433;50.862;4.320;2024-03-08T14:25:20;12.90;;;10.25;;
10761;SDS011;5433;50.862;4.320;2024-03-08T14:27:48;14.18;;;10.57;;
10761;SDS011;5433;50.862;4.320;2024-03-08T14:30:15;13.20;;;10.95;;
10761;SDS011;5433;50.862;4.320;2024-03-08T14:32:59;15.15;;;9.98;;
10761;SDS011;5433;50.862;4.320;2024-03-08T14:35:25;14.75;;;10.75;;
10761;SDS011;5433;50.862;4.320;2024-03-08T14:37:52;16.27;;;10.45;;
10761;SDS011;5433;50.862;4.320;2024-03-08T14:40:19;13.05;;;10.40;;
10761;SDS011;5433;50.862;4.320;2024-03-08T14:42:48;12.93;;;9.65;;
10761;SDS011;5433;50.862;4.320;2024-03-08T14:45:17;16.73;;;10.27;;
10761;SDS011;5433;50.862;4.320;2024-03-08T14:47:46;16.15;;;11.23;;